createdAt,value
2024-02-24T00:01:50.733Z,13.73
2024-02-24T00:04:18.655Z,13.75
2024-02-24T00:06:45.570Z,13.76
2024-02-24T00:09:12.605Z,13.73
2024-02-24T00:11:39.624Z,13.64
2024-02-24T00:14:07.074Z,13.57
2024-02-24T00:16:34.231Z,13.49
2024-02-24T00:19:01.253Z,13.40
2024-02-24T00:21:28.695Z,13.32
2024-02-24T00:23:56.009Z,13.24
2024-02-24T00:26:23.244Z,13.18
2024-02-24T00:28:50.729Z,13.12
2024-02-24T00:31:18.199Z,13.05
2024-02-24T00:33:45.481Z,12.87
2024-02-24T00:36:12.536Z,12.73
2024-02-24T00:38:40.162Z,12.68
2024-02-24T00:41:07.630Z,12.66
2024-02-24T00:43:34.492Z,12.63
2024-02-24T00:46:01.698Z,12.61
2024-02-24T00:48:30.286Z,12.52
2024-02-24T00:50:57.789Z,12.40
2024-02-24T00:53:25.797Z,12.34
2024-02-24T00:55:55.558Z,12.28
2024-02-24T00:58:24.820Z,12.22
2024-02-24T01:00:51.674Z,12.22
2024-02-24T01:03:21.200Z,12.15
2024-02-24T01:05:48.279Z,12.02
2024-02-24T01:08:15.536Z,12.03
2024-02-24T01:10:42.610Z,12.08
2024-02-24T01:13:09.605Z,12.18
2024-02-24T01:15:36.548Z,12.33
2024-02-24T01:18:05.918Z,12.45
2024-02-24T01:20:38.480Z,12.55
2024-02-24T01:23:08.257Z,12.64
2024-02-24T01:25:35.558Z,12.72
2024-02-24T01:28:02.515Z,12.78
2024-02-24T01:30:29.482Z,12.85
2024-02-24T01:32:56.548Z,12.92
2024-02-24T01:35:23.472Z,12.98
2024-02-24T01:37:50.424Z,13.04
2024-02-24T01:40:17.337Z,13.09
2024-02-24T01:42:47.260Z,13.12
2024-02-24T01:45:15.717Z,13.15
2024-02-24T01:47:46.140Z,13.14
2024-02-24T01:50:16.267Z,13.11
2024-02-24T01:52:50.949Z,13.11
2024-02-24T01:55:19.702Z,13.12
2024-02-24T01:57:50.733Z,13.10
2024-02-24T02:00:20.453Z,13.05
2024-02-24T02:02:48.788Z,12.94
2024-02-24T02:05:15.875Z,12.81
2024-02-24T02:07:45.575Z,12.72
2024-02-24T02:10:12.623Z,12.74
2024-02-24T02:12:39.748Z,12.76
2024-02-24T02:15:07.615Z,12.61
2024-02-24T02:17:37.790Z,12.40
2024-02-24T02:20:05.898Z,12.28
2024-02-24T02:22:36.678Z,12.17
2024-02-24T02:25:03.986Z,12.02
2024-02-24T02:27:31.214Z,11.78
2024-02-24T02:30:13.592Z,11.72
2024-02-24T02:32:40.845Z,11.68
2024-02-24T02:35:18.941Z,11.61
2024-02-24T02:37:53.749Z,11.56
2024-02-24T02:40:20.820Z,11.49
2024-02-24T02:42:50.832Z,11.42
2024-02-24T02:45:24.673Z,11.23
2024-02-24T02:47:55.127Z,11.17
2024-02-24T02:50:22.802Z,11.15
2024-02-24T02:52:50.250Z,11.16
2024-02-24T02:55:28.917Z,11.14
2024-02-24T02:57:55.812Z,11.12
2024-02-24T03:00:26.092Z,11.10
2024-02-24T03:02:53.162Z,11.09
2024-02-24T03:05:23.632Z,11.07
2024-02-24T03:07:55.783Z,11.02
2024-02-24T03:10:27.902Z,10.98
2024-02-24T03:13:05.546Z,10.97
2024-02-24T03:15:37.154Z,10.98
2024-02-24T03:18:07.070Z,10.95
2024-02-24T03:20:37.330Z,10.94
2024-02-24T03:23:06.117Z,10.92
2024-02-24T03:25:33.412Z,10.90
2024-02-24T03:28:00.329Z,10.78
2024-02-24T03:30:29.994Z,10.68
2024-02-24T03:32:57.398Z,10.62
2024-02-24T03:35:30.293Z,10.65
2024-02-24T03:37:57.998Z,10.69
2024-02-24T03:40:24.958Z,10.71
2024-02-24T03:42:58.026Z,10.70
2024-02-24T03:45:24.930Z,10.71
2024-02-24T03:47:52.567Z,10.73
2024-02-24T03:50:28.405Z,10.75
2024-02-24T03:52:55.319Z,10.76
2024-02-24T03:55:22.413Z,10.74
2024-02-24T03:57:49.357Z,10.71
2024-02-24T04:00:17.036Z,10.67
2024-02-24T04:02:44.728Z,10.67
2024-02-24T04:05:12.757Z,10.72
2024-02-24T04:07:40.495Z,10.76
2024-02-24T04:10:08.060Z,10.81
2024-02-24T04:12:35.634Z,10.84
2024-02-24T04:15:02.683Z,10.85
2024-02-24T04:17:29.752Z,10.88
2024-02-24T04:19:56.958Z,10.89
2024-02-24T04:22:24.012Z,10.90
2024-02-24T04:24:51.078Z,10.90
2024-02-24T04:27:17.980Z,10.93
2024-02-24T04:29:47.919Z,10.94
2024-02-24T04:32:18.404Z,10.94
2024-02-24T04:34:45.457Z,10.84
2024-02-24T04:37:12.695Z,10.83
2024-02-24T04:39:39.828Z,10.85
2024-02-24T04:42:07.865Z,10.87
2024-02-24T04:44:37.588Z,10.88
2024-02-24T04:47:04.546Z,10.80
2024-02-24T04:49:31.498Z,10.73
2024-02-24T04:51:58.314Z,10.66
2024-02-24T04:54:25.388Z,10.69
2024-02-24T04:56:52.227Z,10.76
2024-02-24T04:59:19.311Z,10.77
2024-02-24T05:01:49.186Z,10.82
2024-02-24T05:04:16.272Z,10.90
2024-02-24T05:06:43.623Z,10.98
2024-02-24T05:09:13.364Z,11.03
2024-02-24T05:11:50.978Z,11.04
2024-02-24T05:14:19.271Z,11.09
2024-02-24T05:16:46.383Z,11.13
2024-02-24T05:19:15.973Z,11.16
2024-02-24T05:21:44.239Z,11.12
2024-02-24T05:24:11.412Z,11.05
2024-02-24T05:26:38.391Z,11.06
2024-02-24T05:29:05.534Z,11.08
2024-02-24T05:31:32.485Z,11.11
2024-02-24T05:34:03.431Z,11.32
2024-02-24T05:36:32.627Z,11.40
2024-02-24T05:39:07.866Z,11.45
2024-02-24T05:41:35.044Z,11.49
2024-02-24T05:44:04.737Z,11.50
2024-02-24T05:46:32.058Z,11.42
2024-02-24T05:49:02.425Z,11.41
2024-02-24T05:51:29.333Z,11.57
2024-02-24T05:54:00.102Z,11.65
2024-02-24T05:56:29.430Z,11.73
2024-02-24T05:58:56.280Z,11.80
2024-02-24T06:01:28.131Z,11.86
2024-02-24T06:03:57.544Z,11.90
2024-02-24T06:06:26.744Z,11.95
2024-02-24T06:08:54.420Z,12.00
2024-02-24T06:11:21.565Z,12.10
2024-02-24T06:13:48.898Z,12.21
2024-02-24T06:16:18.897Z,12.38
2024-02-24T06:18:46.051Z,12.79
2024-02-24T06:21:16.104Z,13.24
2024-02-24T06:23:46.224Z,13.41
2024-02-24T06:26:13.226Z,13.75
2024-02-24T06:28:40.065Z,14.45
2024-02-24T06:31:07.142Z,15.27
2024-02-24T06:33:34.160Z,16.01
2024-02-24T06:36:03.232Z,17.15
2024-02-24T06:38:30.264Z,18.66
2024-02-24T06:40:57.167Z,20.19
2024-02-24T06:43:24.018Z,21.63
2024-02-24T06:45:50.859Z,22.93
2024-02-24T06:48:17.983Z,24.28
2024-02-24T06:50:45.536Z,25.36
2024-02-24T06:53:12.602Z,26.41
2024-02-24T06:55:39.602Z,27.39
2024-02-24T06:58:06.429Z,28.34
2024-02-24T07:00:33.304Z,29.24
2024-02-24T07:03:00.760Z,30.03
2024-02-24T07:05:27.728Z,30.76
2024-02-24T07:07:56.969Z,31.29
2024-02-24T07:10:26.809Z,31.71
2024-02-24T07:13:02.791Z,32.00
2024-02-24T07:15:29.892Z,31.64
2024-02-24T07:17:57.007Z,32.07
2024-02-24T07:20:24.057Z,32.73
2024-02-24T07:22:51.020Z,33.44
2024-02-24T07:25:18.055Z,33.94
2024-02-24T07:27:44.921Z,34.29
2024-02-24T07:30:12.178Z,34.70
2024-02-24T07:32:41.300Z,35.11
2024-02-24T07:35:09.923Z,35.53
2024-02-24T07:37:36.877Z,35.95
2024-02-24T07:40:04.000Z,36.27
2024-02-24T07:42:31.680Z,36.30
2024-02-24T07:44:58.698Z,35.60
2024-02-24T07:47:25.676Z,35.46
2024-02-24T07:49:53.038Z,35.79
2024-02-24T07:52:20.005Z,35.35
2024-02-24T07:54:47.081Z,35.21
2024-02-24T07:57:13.987Z,35.56
2024-02-24T07:59:40.946Z,35.97
2024-02-24T08:02:07.875Z,36.50
2024-02-24T08:04:34.785Z,37.13
2024-02-24T08:07:01.724Z,37.63
2024-02-24T08:09:28.581Z,37.68
2024-02-24T08:11:55.734Z,37.65
2024-02-24T08:14:24.866Z,38.04
2024-02-24T08:16:51.729Z,38.42
2024-02-24T08:19:18.750Z,38.61
2024-02-24T08:21:48.705Z,38.51
2024-02-24T08:24:17.731Z,37.92
2024-02-24T08:26:46.905Z,37.50
2024-02-24T08:29:13.886Z,36.87
2024-02-24T08:31:44.208Z,35.77
2024-02-24T08:34:11.691Z,34.86
2024-02-24T08:36:39.394Z,34.28
2024-02-24T08:39:07.312Z,33.74
2024-02-24T08:41:37.500Z,33.06
2024-02-24T08:44:06.559Z,32.58
2024-02-24T08:46:34.841Z,32.39
2024-02-24T08:49:01.965Z,32.25
2024-02-24T08:51:31.049Z,31.80
2024-02-24T08:53:57.875Z,31.52
2024-02-24T08:56:26.501Z,31.37
2024-02-24T08:58:53.817Z,31.12
2024-02-24T09:01:20.843Z,30.80
2024-02-24T09:03:47.903Z,30.57
2024-02-24T09:06:15.989Z,30.40
2024-02-24T09:08:43.653Z,30.21
2024-02-24T09:11:10.966Z,29.42
2024-02-24T09:13:38.014Z,28.04
2024-02-24T09:16:05.199Z,27.36
2024-02-24T09:18:32.814Z,27.03
2024-02-24T09:20:59.754Z,27.20
2024-02-24T09:23:35.933Z,27.40
2024-02-24T09:26:03.566Z,27.23
2024-02-24T09:28:30.552Z,26.93
2024-02-24T09:30:57.456Z,26.78
2024-02-24T09:33:24.488Z,26.86
2024-02-24T09:35:51.566Z,26.94
2024-02-24T09:38:18.438Z,26.87
2024-02-24T09:40:45.335Z,26.62
2024-02-24T09:43:26.612Z,26.54
2024-02-24T09:45:55.312Z,26.48
2024-02-24T09:48:31.167Z,26.32
2024-02-24T09:51:03.031Z,26.29
2024-02-24T09:53:30.137Z,26.28
2024-02-24T09:55:59.291Z,26.30
2024-02-24T09:58:28.966Z,26.25
2024-02-24T10:00:55.942Z,26.30
2024-02-24T10:03:26.500Z,26.39
2024-02-24T10:05:53.568Z,26.39
2024-02-24T10:08:41.499Z,26.29
2024-02-24T10:11:12.664Z,26.24
2024-02-24T10:13:44.368Z,26.02
2024-02-24T10:16:12.701Z,25.74
2024-02-24T10:18:46.086Z,25.40
2024-02-24T10:21:13.097Z,25.18
2024-02-24T10:23:50.219Z,24.74
2024-02-24T10:26:17.184Z,24.49
2024-02-24T10:28:47.213Z,24.47
2024-02-24T10:31:15.581Z,24.43
2024-02-24T10:33:43.439Z,24.35
2024-02-24T10:36:11.528Z,23.95
2024-02-24T10:38:48.073Z,23.44
2024-02-24T10:41:23.516Z,23.03
2024-02-24T10:44:02.353Z,22.51
2024-02-24T10:46:37.631Z,22.35
2024-02-24T10:49:12.570Z,22.34
2024-02-24T10:51:39.937Z,22.28
2024-02-24T10:54:17.561Z,21.95
2024-02-24T10:56:46.463Z,21.76
2024-02-24T10:59:13.613Z,21.62
2024-02-24T11:01:47.166Z,21.20
2024-02-24T11:04:17.861Z,20.97
2024-02-24T11:06:53.557Z,20.89
2024-02-24T11:09:31.533Z,20.92
2024-02-24T11:12:21.399Z,21.00
2024-02-24T11:14:49.296Z,21.03
2024-02-24T11:17:45.927Z,20.96
2024-02-24T11:20:13.649Z,20.95
2024-02-24T11:22:40.600Z,20.95
2024-02-24T11:25:07.610Z,20.85
2024-02-24T11:27:43.466Z,20.57
2024-02-24T11:30:35.260Z,20.10
2024-02-24T11:33:25.152Z,19.90
2024-02-24T11:35:53.357Z,19.99
2024-02-24T11:38:20.938Z,20.02
2024-02-24T11:40:49.634Z,20.00
2024-02-24T11:43:21.499Z,20.06
2024-02-24T11:45:56.412Z,19.92
2024-02-24T11:48:34.668Z,19.68
2024-02-24T11:51:01.757Z,19.53
2024-02-24T11:53:32.219Z,19.58
2024-02-24T11:56:01.698Z,19.68
2024-02-24T11:58:28.767Z,19.74
2024-02-24T12:00:58.583Z,19.78
2024-02-24T12:03:25.684Z,19.77
2024-02-24T12:06:06.242Z,19.75
2024-02-24T12:08:35.294Z,19.75
2024-02-24T12:11:02.538Z,19.78
2024-02-24T12:13:29.512Z,19.80
2024-02-24T12:16:01.683Z,19.81
2024-02-24T12:18:30.724Z,19.80
2024-02-24T12:21:02.890Z,19.78
2024-02-24T12:23:34.981Z,19.79
2024-02-24T12:26:24.722Z,19.79
2024-02-24T12:28:52.365Z,19.77
2024-02-24T12:31:19.822Z,19.74
2024-02-24T12:33:47.544Z,19.73
2024-02-24T12:36:19.888Z,19.71
2024-02-24T12:38:49.953Z,19.69
2024-02-24T12:41:17.525Z,19.69
2024-02-24T12:43:46.651Z,19.70
2024-02-24T12:46:13.796Z,19.72
2024-02-24T12:48:43.747Z,19.73
2024-02-24T12:51:16.348Z,19.70
2024-02-24T12:53:43.635Z,19.63
2024-02-24T12:56:10.730Z,19.56
2024-02-24T12:58:40.157Z,19.58
2024-02-24T13:01:14.004Z,19.61
2024-02-24T13:03:40.984Z,19.46
2024-02-24T13:06:08.078Z,19.24
2024-02-24T13:08:35.424Z,19.18
2024-02-24T13:11:02.780Z,19.08
2024-02-24T13:13:30.007Z,19.06
2024-02-24T13:15:57.001Z,18.93
2024-02-24T13:18:24.201Z,18.74
2024-02-24T13:20:51.309Z,18.71
2024-02-24T13:23:18.535Z,18.69
2024-02-24T13:25:48.260Z,18.69
2024-02-24T13:28:15.231Z,18.67
2024-02-24T13:30:42.394Z,18.62
2024-02-24T13:33:11.645Z,18.58
2024-02-24T13:35:38.629Z,18.56
2024-02-24T13:38:05.750Z,18.55
2024-02-24T13:40:32.952Z,18.33
2024-02-24T13:43:01.337Z,18.12
2024-02-24T13:45:30.754Z,18.08
2024-02-24T13:48:00.927Z,18.14
2024-02-24T13:50:28.300Z,18.20
2024-02-24T13:52:55.892Z,18.19
2024-02-24T13:55:34.322Z,18.21
2024-02-24T13:58:04.370Z,18.25
2024-02-24T14:00:31.456Z,18.28
2024-02-24T14:03:00.652Z,18.29
2024-02-24T14:06:04.018Z,18.32
2024-02-24T14:08:29.081Z,18.32
2024-02-24T14:10:56.009Z,18.22
2024-02-24T14:13:23.050Z,18.15
2024-02-24T14:15:53.029Z,18.17
2024-02-24T14:18:22.977Z,18.18
2024-02-24T14:20:49.879Z,18.18
2024-02-24T14:23:16.852Z,18.15
2024-02-24T14:25:43.771Z,18.14
2024-02-24T14:28:11.868Z,18.11
2024-02-24T14:30:39.687Z,18.09
2024-02-24T14:33:10.305Z,18.10
2024-02-24T14:35:44.657Z,18.11
2024-02-24T14:38:11.665Z,18.03
2024-02-24T14:40:38.854Z,17.98
2024-02-24T14:43:06.520Z,17.96
2024-02-24T14:45:33.412Z,17.89
2024-02-24T14:48:05.606Z,17.87
2024-02-24T14:50:33.404Z,17.87
2024-02-24T14:53:00.815Z,17.81
2024-02-24T14:55:27.690Z,17.72
2024-02-24T14:57:54.827Z,17.69
2024-02-24T15:00:27.434Z,17.61
2024-02-24T15:03:08.315Z,17.50
2024-02-24T15:05:37.656Z,17.49
2024-02-24T15:08:05.095Z,17.52
2024-02-24T15:10:32.579Z,17.55
2024-02-24T15:12:59.380Z,17.56
2024-02-24T15:15:26.340Z,17.55
2024-02-24T15:17:54.332Z,17.55
2024-02-24T15:20:21.810Z,17.52
2024-02-24T15:22:49.772Z,17.45
2024-02-24T15:25:16.898Z,17.44
2024-02-24T15:27:43.865Z,17.46
2024-02-24T15:30:11.660Z,17.46
2024-02-24T15:32:38.745Z,17.39
2024-02-24T15:35:06.772Z,17.36
2024-02-24T15:37:36.518Z,17.34
2024-02-24T15:40:08.885Z,17.28
2024-02-24T15:42:36.796Z,17.25
2024-02-24T15:45:04.945Z,17.18
2024-02-24T15:47:32.023Z,17.12
2024-02-24T15:49:58.999Z,17.12
2024-02-24T15:52:26.011Z,17.14
2024-02-24T15:54:54.436Z,17.12
2024-02-24T15:57:21.328Z,17.06
2024-02-24T15:59:48.258Z,17.03
2024-02-24T16:02:16.122Z,17.04
2024-02-24T16:04:43.803Z,17.04
2024-02-24T16:07:10.965Z,16.98
2024-02-24T16:09:38.130Z,16.95
2024-02-24T16:12:06.168Z,16.94
2024-02-24T16:14:33.209Z,16.91
2024-02-24T16:17:03.933Z,16.89
2024-02-24T16:19:31.230Z,16.89
2024-02-24T16:21:58.271Z,16.89
2024-02-24T16:24:36.021Z,16.90
2024-02-24T16:27:15.603Z,16.91
2024-02-24T16:30:33.408Z,16.89
2024-02-24T16:33:12.069Z,16.87
2024-02-24T16:35:48.218Z,16.80
2024-02-24T16:38:15.208Z,16.77
2024-02-24T16:40:43.037Z,16.79
2024-02-24T16:43:13.238Z,16.81
2024-02-24T16:45:40.030Z,16.82
2024-02-24T16:48:07.457Z,16.82
2024-02-24T16:50:34.667Z,16.83
2024-02-24T16:53:01.597Z,16.84
2024-02-24T16:55:28.511Z,16.82
2024-02-24T16:57:55.446Z,16.82
2024-02-24T17:00:27.343Z,16.82
2024-02-24T17:02:54.348Z,16.80
2024-02-24T17:05:22.241Z,16.78
2024-02-24T17:07:56.808Z,16.75
2024-02-24T17:10:24.019Z,16.74
2024-02-24T17:12:53.493Z,16.74
2024-02-24T17:15:23.558Z,16.74
2024-02-24T17:17:51.019Z,16.75
2024-02-24T17:20:18.248Z,16.76
2024-02-24T17:22:47.723Z,16.76
2024-02-24T17:25:16.837Z,16.78
2024-02-24T17:27:45.929Z,16.76
2024-02-24T17:30:14.721Z,16.73
2024-02-24T17:32:47.154Z,16.69
2024-02-24T17:35:14.266Z,16.64
2024-02-24T17:37:41.411Z,16.59
2024-02-24T17:40:09.683Z,16.56
2024-02-24T17:42:36.910Z,16.57
2024-02-24T17:45:06.813Z,16.53
2024-02-24T17:47:33.820Z,16.44
2024-02-24T17:50:01.157Z,16.38
2024-02-24T17:52:28.285Z,16.32
2024-02-24T17:54:56.682Z,16.33
2024-02-24T17:57:23.748Z,16.34
2024-02-24T17:59:50.750Z,16.36
2024-02-24T18:02:17.628Z,16.35
2024-02-24T18:04:47.292Z,16.31
2024-02-24T18:07:14.397Z,16.33
2024-02-24T18:09:41.472Z,16.33
2024-02-24T18:12:09.090Z,16.34
2024-02-24T18:14:37.218Z,16.35
2024-02-24T18:17:04.618Z,16.38
2024-02-24T18:19:32.140Z,16.37
2024-02-24T18:22:04.063Z,16.35
2024-02-24T18:24:31.192Z,16.36
2024-02-24T18:26:58.771Z,16.38
2024-02-24T18:29:27.174Z,16.40
2024-02-24T18:31:54.388Z,16.41
2024-02-24T18:34:24.675Z,16.41
2024-02-24T18:36:51.881Z,16.34
2024-02-24T18:39:18.776Z,16.31
2024-02-24T18:41:45.964Z,16.34
2024-02-24T18:44:16.067Z,16.36
2024-02-24T18:46:46.025Z,16.34
2024-02-24T18:49:13.080Z,16.33
2024-02-24T18:51:40.087Z,16.35
2024-02-24T18:54:10.986Z,16.36
2024-02-24T18:56:38.789Z,16.37
2024-02-24T18:59:08.420Z,16.38
2024-02-24T19:01:35.382Z,16.36
2024-02-24T19:04:05.168Z,16.30
2024-02-24T19:06:32.433Z,16.28
2024-02-24T19:09:00.695Z,16.29
2024-02-24T19:11:29.533Z,16.32
2024-02-24T19:14:02.414Z,16.32
2024-02-24T19:16:30.514Z,16.31
2024-02-24T19:18:58.237Z,16.31
2024-02-24T19:21:28.337Z,16.29
2024-02-24T19:23:55.553Z,16.20
2024-02-24T19:26:23.866Z,16.00
2024-02-24T19:28:51.468Z,15.84
2024-02-24T19:31:21.155Z,15.75
2024-02-24T19:33:48.279Z,15.71
2024-02-24T19:36:20.176Z,15.68
2024-02-24T19:38:50.471Z,15.63
2024-02-24T19:41:23.133Z,15.58
2024-02-24T19:43:50.390Z,15.52
2024-02-24T19:46:19.979Z,15.50
2024-02-24T19:48:47.038Z,15.51
2024-02-24T19:51:14.155Z,15.50
2024-02-24T19:53:41.569Z,15.53
2024-02-24T19:56:08.454Z,15.59
2024-02-24T19:58:39.613Z,15.65
2024-02-24T20:01:12.923Z,15.71
2024-02-24T20:03:41.312Z,15.73
2024-02-24T20:06:08.966Z,15.75
2024-02-24T20:08:36.229Z,15.82
2024-02-24T20:11:03.294Z,15.86
2024-02-24T20:13:30.125Z,15.90
2024-02-24T20:15:56.929Z,15.92
2024-02-24T20:18:26.766Z,15.90
2024-02-24T20:20:54.213Z,15.90
2024-02-24T20:23:23.847Z,15.93
2024-02-24T20:25:54.818Z,15.94
2024-02-24T20:28:21.822Z,15.94
2024-02-24T20:30:49.801Z,15.99
2024-02-24T20:33:16.833Z,15.96
2024-02-24T20:35:43.858Z,15.93
2024-02-24T20:38:10.887Z,15.96
2024-02-24T20:40:38.317Z,15.88
2024-02-24T20:43:07.649Z,15.84
2024-02-24T20:45:34.503Z,15.81
2024-02-24T20:48:01.712Z,15.85
2024-02-24T20:50:31.341Z,15.88
2024-02-24T20:52:58.850Z,15.82
2024-02-24T20:55:26.578Z,15.75
2024-02-24T20:57:55.521Z,15.75
2024-02-24T21:00:22.464Z,15.70
2024-02-24T21:02:49.589Z,15.69
2024-02-24T21:05:16.765Z,15.69
2024-02-24T21:07:45.503Z,15.65
2024-02-24T21:10:12.609Z,15.65
2024-02-24T21:12:39.693Z,15.69
2024-02-24T21:15:07.607Z,15.66
2024-02-24T21:17:35.714Z,15.59
2024-02-24T21:20:06.324Z,15.52
2024-02-24T21:22:34.225Z,15.49
2024-02-24T21:25:01.288Z,15.39
2024-02-24T21:27:28.159Z,15.24
2024-02-24T21:29:55.037Z,15.16
2024-02-24T21:32:22.324Z,15.13
2024-02-24T21:34:49.859Z,15.12
2024-02-24T21:37:21.542Z,15.17
2024-02-24T21:39:51.660Z,15.16
2024-02-24T21:42:18.881Z,15.16
2024-02-24T21:44:48.928Z,15.16
2024-02-24T21:47:15.782Z,15.18
2024-02-24T21:49:42.548Z,15.21
2024-02-24T21:52:09.537Z,15.22
2024-02-24T21:54:36.529Z,15.25
2024-02-24T21:57:03.857Z,15.22
2024-02-24T21:59:31.203Z,15.14
2024-02-24T22:02:01.257Z,15.12
2024-02-24T22:04:29.589Z,15.14
2024-02-24T22:06:56.538Z,15.17
2024-02-24T22:09:23.900Z,15.20
2024-02-24T22:11:50.851Z,15.24
2024-02-24T22:14:22.586Z,15.29
2024-02-24T22:16:50.138Z,15.31
2024-02-24T22:19:17.545Z,15.35
2024-02-24T22:21:45.206Z,15.39
2024-02-24T22:24:12.308Z,15.42
2024-02-24T22:26:40.501Z,15.42
2024-02-24T22:29:07.572Z,15.42
2024-02-24T22:31:37.749Z,15.43
2024-02-24T22:34:05.090Z,15.42
2024-02-24T22:36:32.257Z,15.41
2024-02-24T22:38:59.356Z,15.41
2024-02-24T22:41:26.685Z,15.40
2024-02-24T22:43:56.225Z,15.34
2024-02-24T22:46:24.440Z,15.21
2024-02-24T22:48:51.760Z,15.15
2024-02-24T22:51:20.038Z,15.14
2024-02-24T22:53:47.099Z,15.12
2024-02-24T22:56:14.314Z,15.04
2024-02-24T22:58:50.394Z,15.01
2024-02-24T23:01:17.334Z,14.97
2024-02-24T23:03:44.624Z,14.95
2024-02-24T23:06:12.387Z,14.91
2024-02-24T23:08:42.139Z,14.84
2024-02-24T23:11:09.296Z,14.80
2024-02-24T23:13:39.251Z,14.80
2024-02-24T23:16:06.566Z,14.81
2024-02-24T23:18:34.429Z,14.73
2024-02-24T23:21:03.886Z,14.58
2024-02-24T23:23:33.526Z,14.49
2024-02-24T23:26:01.785Z,14.49
2024-02-24T23:28:28.761Z,14.54
2024-02-24T23:30:57.172Z,14.56
2024-02-24T23:33:26.651Z,14.47
2024-02-24T23:35:56.538Z,14.29
2024-02-24T23:38:23.621Z,14.20
2024-02-24T23:40:50.494Z,14.24
2024-02-24T23:43:17.269Z,14.29
2024-02-24T23:45:44.350Z,14.34
2024-02-24T23:48:11.571Z,14.36
2024-02-24T23:50:38.827Z,14.38
2024-02-24T23:53:05.867Z,14.40
2024-02-24T23:55:32.915Z,14.41
2024-02-24T23:57:59.761Z,14.44
